sensor_id;sensor_type;location;lat;lon;timestamp;P1;durP1;ratioP1;P2;durP2;ratioP2
14704;SDS011;7442;50.840;3.396;2024-01-11T00:01:33;24.90;;;15.98;;
14704;SDS011;7442;50.840;3.396;2024-01-11T00:07:04;24.20;;;15.25;;
14704;SDS011;7442;50.840;3.396;2024-01-11T00:09:50;22.85;;;15.50;;
14704;SDS011;7442;50.840;3.396;2024-01-11T00:12:36;20.23;;;14.13;;
14704;SDS011;7442;50.840;3.396;2024-01-11T00:15:22;20.57;;;13.88;;
14704;SDS011;7442;50.840;3.396;2024-01-11T00:18:08;19.95;;;12.98;;
14704;SDS011;7442;50.840;3.396;2024-01-11T00:20:54;20.55;;;12.93;;
14704;SDS011;7442;50.840;3.396;2024-01-11T00:23:40;19.50;;;13.58;;
14704;SDS011;7442;50.840;3.396;2024-01-11T00:26:26;19.20;;;13.48;;
14704;SDS011;7442;50.840;3.396;2024-01-11T00:29:12;20.52;;;13.18;;
14704;SDS011;7442;50.840;3.396;2024-01-11T00:34:43;19.05;;;13.00;;
14704;SDS011;7442;50.840;3.396;2024-01-11T00:37:29;16.50;;;12.28;;
14704;SDS011;7442;50.840;3.396;2024-01-11T00:40:16;15.88;;;12.03;;
14704;SDS011;7442;50.840;3.396;2024-01-11T00:43:02;16.57;;;11.80;;
14704;SDS011;7442;50.840;3.396;2024-01-11T00:45:47;17.90;;;12.73;;
14704;SDS011;7442;50.840;3.396;2024-01-11T00:48:33;18.62;;;11.57;;
14704;SDS011;7442;50.840;3.396;2024-01-11T00:51:20;16.97;;;11.30;;
14704;SDS011;7442;50.840;3.396;2024-01-11T00:54:06;17.82;;;11.93;;
14704;SDS011;7442;50.840;3.396;2024-01-11T00:56:53;15.60;;;11.28;;
14704;SDS011;7442;50.840;3.396;2024-01-11T00:59:40;15.25;;;11.20;;
14704;SDS011;7442;50.840;3.396;2024-01-11T01:02:26;16.02;;;11.12;;
14704;SDS011;7442;50.840;3.396;2024-01-11T01:05:12;14.93;;;10.55;;
14704;SDS011;7442;50.840;3.396;2024-01-11T01:08:02;16.52;;;10.95;;
14704;SDS011;7442;50.840;3.396;2024-01-11T01:10:48;14.93;;;10.08;;
14704;SDS011;7442;50.840;3.396;2024-01-11T01:13:34;17.12;;;10.40;;
14704;SDS011;7442;50.840;3.396;2024-01-11T01:16:20;14.25;;;10.23;;
14704;SDS011;7442;50.840;3.396;2024-01-11T01:21:51;14.65;;;10.10;;
14704;SDS011;7442;50.840;3.396;2024-01-11T01:24:37;13.45;;;10.08;;
14704;SDS011;7442;50.840;3.396;2024-01-11T01:30:09;13.22;;;9.45;;
14704;SDS011;7442;50.840;3.396;2024-01-11T01:32:55;12.73;;;9.70;;
14704;SDS011;7442;50.840;3.396;2024-01-11T01:35:41;14.13;;;10.13;;
14704;SDS011;7442;50.840;3.396;2024-01-11T01:41:17;11.48;;;9.48;;
14704;SDS011;7442;50.840;3.396;2024-01-11T01:44:00;12.73;;;9.88;;
14704;SDS011;7442;50.840;3.396;2024-01-11T01:49:31;9.85;;;8.18;;
14704;SDS011;7442;50.840;3.396;2024-01-11T01:52:17;13.50;;;9.70;;
14704;SDS011;7442;50.840;3.396;2024-01-11T01:55:04;12.37;;;8.95;;
14704;SDS011;7442;50.840;3.396;2024-01-11T01:57:51;12.90;;;9.30;;
14704;SDS011;7442;50.840;3.396;2024-01-11T02:00:38;12.82;;;9.05;;
14704;SDS011;7442;50.840;3.396;2024-01-11T02:03:27;12.55;;;8.98;;
14704;SDS011;7442;50.840;3.396;2024-01-11T02:06:13;12.03;;;8.83;;
14704;SDS011;7442;50.840;3.396;2024-01-11T02:09:00;12.85;;;9.18;;
14704;SDS011;7442;50.840;3.396;2024-01-11T02:11:51;10.98;;;8.78;;
14704;SDS011;7442;50.840;3.396;2024-01-11T02:14:39;10.55;;;8.75;;
14704;SDS011;7442;50.840;3.396;2024-01-11T02:17:25;10.13;;;8.03;;
14704;SDS011;7442;50.840;3.396;2024-01-11T02:20:11;11.20;;;8.65;;
14704;SDS011;7442;50.840;3.396;2024-01-11T02:22:58;12.03;;;8.68;;
14704;SDS011;7442;50.840;3.396;2024-01-11T02:25:44;11.63;;;8.30;;
14704;SDS011;7442;50.840;3.396;2024-01-11T02:28:34;12.80;;;8.43;;
14704;SDS011;7442;50.840;3.396;2024-01-11T02:34:05;12.65;;;8.78;;
14704;SDS011;7442;50.840;3.396;2024-01-11T02:36:52;12.25;;;8.95;;
14704;SDS011;7442;50.840;3.396;2024-01-11T02:39:38;10.48;;;8.13;;
14704;SDS011;7442;50.840;3.396;2024-01-11T02:42:24;10.68;;;8.33;;
14704;SDS011;7442;50.840;3.396;2024-01-11T02:45:12;11.83;;;8.65;;
14704;SDS011;7442;50.840;3.396;2024-01-11T02:47:58;9.83;;;8.05;;
14704;SDS011;7442;50.840;3.396;2024-01-11T02:50:44;10.55;;;8.08;;
14704;SDS011;7442;50.840;3.396;2024-01-11T02:53:30;10.00;;;8.05;;
14704;SDS011;7442;50.840;3.396;2024-01-11T02:56:17;13.08;;;8.03;;
14704;SDS011;7442;50.840;3.396;2024-01-11T02:59:03;9.98;;;7.40;;
14704;SDS011;7442;50.840;3.396;2024-01-11T03:01:49;11.60;;;7.95;;
14704;SDS011;7442;50.840;3.396;2024-01-11T03:07:20;9.30;;;7.55;;
14704;SDS011;7442;50.840;3.396;2024-01-11T03:12:51;10.63;;;7.67;;
14704;SDS011;7442;50.840;3.396;2024-01-11T03:15:37;9.68;;;7.78;;
14704;SDS011;7442;50.840;3.396;2024-01-11T03:21:08;9.10;;;7.78;;
14704;SDS011;7442;50.840;3.396;2024-01-11T03:26:40;9.08;;;7.37;;
14704;SDS011;7442;50.840;3.396;2024-01-11T03:29:27;7.95;;;6.78;;
14704;SDS011;7442;50.840;3.396;2024-01-11T03:32:13;7.95;;;6.72;;
14704;SDS011;7442;50.840;3.396;2024-01-11T03:37:44;9.75;;;7.53;;
14704;SDS011;7442;50.840;3.396;2024-01-11T03:40:30;9.23;;;7.17;;
14704;SDS011;7442;50.840;3.396;2024-01-11T03:43:19;8.65;;;7.00;;
14704;SDS011;7442;50.840;3.396;2024-01-11T03:46:05;9.68;;;7.17;;
14704;SDS011;7442;50.840;3.396;2024-01-11T03:51:36;10.38;;;7.62;;
14704;SDS011;7442;50.840;3.396;2024-01-11T03:54:22;10.05;;;7.37;;
14704;SDS011;7442;50.840;3.396;2024-01-11T03:57:08;9.68;;;7.25;;
14704;SDS011;7442;50.840;3.396;2024-01-11T03:59:54;8.08;;;6.90;;
14704;SDS011;7442;50.840;3.396;2024-01-11T04:02:42;9.18;;;7.47;;
14704;SDS011;7442;50.840;3.396;2024-01-11T04:05:28;8.75;;;6.97;;
14704;SDS011;7442;50.840;3.396;2024-01-11T04:08:14;9.33;;;7.30;;
14704;SDS011;7442;50.840;3.396;2024-01-11T04:13:48;8.78;;;7.08;;
14704;SDS011;7442;50.840;3.396;2024-01-11T04:16:39;8.78;;;7.45;;
14704;SDS011;7442;50.840;3.396;2024-01-11T04:19:22;10.30;;;7.37;;
14704;SDS011;7442;50.840;3.396;2024-01-11T04:22:08;9.55;;;7.15;;
14704;SDS011;7442;50.840;3.396;2024-01-11T04:24:54;10.93;;;7.78;;
14704;SDS011;7442;50.840;3.396;2024-01-11T04:27:40;8.35;;;6.47;;
14704;SDS011;7442;50.840;3.396;2024-01-11T04:30:26;10.35;;;7.17;;
14704;SDS011;7442;50.840;3.396;2024-01-11T04:33:12;8.68;;;6.62;;
14704;SDS011;7442;50.840;3.396;2024-01-11T04:35:59;9.10;;;7.25;;
14704;SDS011;7442;50.840;3.396;2024-01-11T04:38:45;9.28;;;6.85;;
14704;SDS011;7442;50.840;3.396;2024-01-11T04:41:31;9.18;;;7.33;;
14704;SDS011;7442;50.840;3.396;2024-01-11T04:44:17;8.93;;;6.83;;
14704;SDS011;7442;50.840;3.396;2024-01-11T04:47:03;8.60;;;6.50;;
14704;SDS011;7442;50.840;3.396;2024-01-11T04:49:49;9.58;;;6.67;;
14704;SDS011;7442;50.840;3.396;2024-01-11T04:55:20;9.68;;;7.25;;
14704;SDS011;7442;50.840;3.396;2024-01-11T05:00:51;8.78;;;6.78;;
14704;SDS011;7442;50.840;3.396;2024-01-11T05:03:37;10.25;;;7.40;;
14704;SDS011;7442;50.840;3.396;2024-01-11T05:06:23;9.10;;;7.33;;
14704;SDS011;7442;50.840;3.396;2024-01-11T05:09:10;10.70;;;7.47;;
14704;SDS011;7442;50.840;3.396;2024-01-11T05:14:41;9.83;;;7.22;;
14704;SDS011;7442;50.840;3.396;2024-01-11T05:20:12;7.65;;;6.05;;
14704;SDS011;7442;50.840;3.396;2024-01-11T05:22:58;7.80;;;6.37;;
14704;SDS011;7442;50.840;3.396;2024-01-11T05:25:45;10.63;;;7.55;;
14704;SDS011;7442;50.840;3.396;2024-01-11T05:28:32;8.48;;;6.87;;
14704;SDS011;7442;50.840;3.396;2024-01-11T05:31:19;7.60;;;6.65;;
14704;SDS011;7442;50.840;3.396;2024-01-11T05:34:05;9.03;;;6.72;;
14704;SDS011;7442;50.840;3.396;2024-01-11T05:36:51;8.40;;;7.03;;
14704;SDS011;7442;50.840;3.396;2024-01-11T05:39:37;8.60;;;6.60;;
14704;SDS011;7442;50.840;3.396;2024-01-11T05:42:28;9.23;;;6.75;;
14704;SDS011;7442;50.840;3.396;2024-01-11T05:45:11;9.28;;;6.35;;
14704;SDS011;7442;50.840;3.396;2024-01-11T05:50:42;8.48;;;7.10;;
14704;SDS011;7442;50.840;3.396;2024-01-11T05:53:28;7.85;;;6.62;;
14704;SDS011;7442;50.840;3.396;2024-01-11T05:56:14;8.25;;;6.40;;
14704;SDS011;7442;50.840;3.396;2024-01-11T06:01:45;9.00;;;6.75;;
14704;SDS011;7442;50.840;3.396;2024-01-11T06:04:32;9.23;;;6.35;;
14704;SDS011;7442;50.840;3.396;2024-01-11T06:07:18;7.10;;;5.95;;
14704;SDS011;7442;50.840;3.396;2024-01-11T06:12:50;8.40;;;6.75;;
14704;SDS011;7442;50.840;3.396;2024-01-11T06:15:38;8.30;;;6.58;;
14704;SDS011;7442;50.840;3.396;2024-01-11T06:21:09;8.10;;;6.33;;
14704;SDS011;7442;50.840;3.396;2024-01-11T06:23:55;8.53;;;6.58;;
14704;SDS011;7442;50.840;3.396;2024-01-11T06:29:26;7.58;;;5.55;;
14704;SDS011;7442;50.840;3.396;2024-01-11T06:32:12;12.53;;;5.95;;
14704;SDS011;7442;50.840;3.396;2024-01-11T06:34:58;8.30;;;6.10;;
14704;SDS011;7442;50.840;3.396;2024-01-11T06:37:44;8.63;;;6.25;;
14704;SDS011;7442;50.840;3.396;2024-01-11T06:40:30;8.65;;;5.70;;
14704;SDS011;7442;50.840;3.396;2024-01-11T06:43:16;8.68;;;6.42;;
14704;SDS011;7442;50.840;3.396;2024-01-11T06:48:48;8.78;;;6.03;;
14704;SDS011;7442;50.840;3.396;2024-01-11T06:51:34;11.73;;;6.67;;
14704;SDS011;7442;50.840;3.396;2024-01-11T06:57:05;7.50;;;5.40;;
14704;SDS011;7442;50.840;3.396;2024-01-11T06:59:51;6.72;;;6.00;;
14704;SDS011;7442;50.840;3.396;2024-01-11T07:05:30;12.03;;;5.85;;
14704;SDS011;7442;50.840;3.396;2024-01-11T07:08:16;11.48;;;5.78;;
14704;SDS011;7442;50.840;3.396;2024-01-11T07:11:02;7.28;;;5.53;;
14704;SDS011;7442;50.840;3.396;2024-01-11T07:13:49;8.73;;;5.53;;
14704;SDS011;7442;50.840;3.396;2024-01-11T07:16:35;7.55;;;5.60;;
14704;SDS011;7442;50.840;3.396;2024-01-11T07:19:21;9.13;;;5.42;;
14704;SDS011;7442;50.840;3.396;2024-01-11T07:22:07;9.65;;;5.55;;
14704;SDS011;7442;50.840;3.396;2024-01-11T07:27:39;8.10;;;5.58;;
14704;SDS011;7442;50.840;3.396;2024-01-11T07:30:25;8.33;;;5.75;;
14704;SDS011;7442;50.840;3.396;2024-01-11T07:33:11;6.67;;;5.50;;
14704;SDS011;7442;50.840;3.396;2024-01-11T07:35:57;7.78;;;6.10;;
14704;SDS011;7442;50.840;3.396;2024-01-11T07:38:44;8.83;;;6.00;;
14704;SDS011;7442;50.840;3.396;2024-01-11T07:41:30;7.83;;;6.20;;
14704;SDS011;7442;50.840;3.396;2024-01-11T07:44:16;7.10;;;5.70;;
14704;SDS011;7442;50.840;3.396;2024-01-11T07:49:47;6.97;;;5.33;;
14704;SDS011;7442;50.840;3.396;2024-01-11T07:52:33;7.47;;;5.83;;
14704;SDS011;7442;50.840;3.396;2024-01-11T07:55:19;7.78;;;5.50;;
14704;SDS011;7442;50.840;3.396;2024-01-11T07:58:07;6.95;;;5.40;;
14704;SDS011;7442;50.840;3.396;2024-01-11T08:00:53;8.53;;;6.03;;
14704;SDS011;7442;50.840;3.396;2024-01-11T08:03:39;6.42;;;5.72;;
14704;SDS011;7442;50.840;3.396;2024-01-11T08:06:26;7.22;;;6.15;;
14704;SDS011;7442;50.840;3.396;2024-01-11T08:09:13;7.22;;;6.10;;
14704;SDS011;7442;50.840;3.396;2024-01-11T08:11:58;7.92;;;6.03;;
14704;SDS011;7442;50.840;3.396;2024-01-11T08:14:45;8.70;;;5.97;;
14704;SDS011;7442;50.840;3.396;2024-01-11T08:17:32;12.75;;;6.47;;
14704;SDS011;7442;50.840;3.396;2024-01-11T08:20:19;8.45;;;5.92;;
14704;SDS011;7442;50.840;3.396;2024-01-11T08:23:05;8.85;;;5.85;;
14704;SDS011;7442;50.840;3.396;2024-01-11T08:25:52;10.35;;;6.40;;
14704;SDS011;7442;50.840;3.396;2024-01-11T08:28:41;7.42;;;6.12;;
14704;SDS011;7442;50.840;3.396;2024-01-11T08:31:27;7.33;;;5.72;;
14704;SDS011;7442;50.840;3.396;2024-01-11T08:34:13;7.58;;;5.92;;
14704;SDS011;7442;50.840;3.396;2024-01-11T08:37:00;11.40;;;6.35;;
14704;SDS011;7442;50.840;3.396;2024-01-11T08:42:32;9.68;;;5.80;;
14704;SDS011;7442;50.840;3.396;2024-01-11T08:45:18;11.93;;;6.53;;
14704;SDS011;7442;50.840;3.396;2024-01-11T08:48:05;7.75;;;5.95;;
14704;SDS011;7442;50.840;3.396;2024-01-11T08:50:54;7.97;;;5.92;;
14704;SDS011;7442;50.840;3.396;2024-01-11T08:53:40;7.67;;;5.90;;
14704;SDS011;7442;50.840;3.396;2024-01-11T08:56:26;9.03;;;6.65;;
14704;SDS011;7442;50.840;3.396;2024-01-11T08:59:13;8.83;;;6.58;;
14704;SDS011;7442;50.840;3.396;2024-01-11T09:01:59;7.85;;;5.90;;
14704;SDS011;7442;50.840;3.396;2024-01-11T09:04:47;8.00;;;6.22;;
14704;SDS011;7442;50.840;3.396;2024-01-11T09:07:33;8.20;;;6.53;;
14704;SDS011;7442;50.840;3.396;2024-01-11T09:10:19;10.40;;;6.58;;
14704;SDS011;7442;50.840;3.396;2024-01-11T09:13:05;9.68;;;6.80;;
14704;SDS011;7442;50.840;3.396;2024-01-11T09:15:52;8.78;;;5.85;;
14704;SDS011;7442;50.840;3.396;2024-01-11T09:18:38;7.83;;;5.85;;
14704;SDS011;7442;50.840;3.396;2024-01-11T09:21:24;8.25;;;5.80;;
14704;SDS011;7442;50.840;3.396;2024-01-11T09:24:10;7.67;;;6.22;;
14704;SDS011;7442;50.840;3.396;2024-01-11T09:26:57;9.95;;;6.75;;
14704;SDS011;7442;50.840;3.396;2024-01-11T09:32:29;10.00;;;6.17;;
14704;SDS011;7442;50.840;3.396;2024-01-11T09:35:16;8.88;;;6.12;;
14704;SDS011;7442;50.840;3.396;2024-01-11T09:38:02;11.35;;;5.90;;
14704;SDS011;7442;50.840;3.396;2024-01-11T09:41:04;8.15;;;6.10;;
14704;SDS011;7442;50.840;3.396;2024-01-11T09:43:45;11.22;;;6.17;;
14704;SDS011;7442;50.840;3.396;2024-01-11T09:46:32;11.60;;;6.60;;
14704;SDS011;7442;50.840;3.396;2024-01-11T09:49:19;9.65;;;6.80;;
14704;SDS011;7442;50.840;3.396;2024-01-11T09:52:06;9.13;;;6.83;;
14704;SDS011;7442;50.840;3.396;2024-01-11T09:54:54;9.93;;;6.15;;
14704;SDS011;7442;50.840;3.396;2024-01-11T09:57:41;8.78;;;6.67;;
14704;SDS011;7442;50.840;3.396;2024-01-11T10:00:27;9.48;;;6.80;;
14704;SDS011;7442;50.840;3.396;2024-01-11T10:03:13;10.25;;;6.62;;
14704;SDS011;7442;50.840;3.396;2024-01-11T10:06:01;9.63;;;6.37;;
14704;SDS011;7442;50.840;3.396;2024-01-11T10:08:48;8.73;;;6.50;;
14704;SDS011;7442;50.840;3.396;2024-01-11T10:11:34;8.30;;;6.92;;
14704;SDS011;7442;50.840;3.396;2024-01-11T10:14:20;10.53;;;6.42;;
14704;SDS011;7442;50.840;3.396;2024-01-11T10:17:06;7.62;;;6.40;;
14704;SDS011;7442;50.840;3.396;2024-01-11T10:19:53;8.85;;;6.50;;
14704;SDS011;7442;50.840;3.396;2024-01-11T10:22:40;9.28;;;6.90;;
14704;SDS011;7442;50.840;3.396;2024-01-11T10:25:27;11.45;;;6.70;;
14704;SDS011;7442;50.840;3.396;2024-01-11T10:28:13;8.45;;;6.67;;
14704;SDS011;7442;50.840;3.396;2024-01-11T10:31:00;9.15;;;6.80;;
14704;SDS011;7442;50.840;3.396;2024-01-11T10:33:47;10.05;;;7.08;;
14704;SDS011;7442;50.840;3.396;2024-01-11T10:36:33;7.83;;;6.58;;
14704;SDS011;7442;50.840;3.396;2024-01-11T10:39:21;8.13;;;6.17;;
14704;SDS011;7442;50.840;3.396;2024-01-11T10:42:07;8.88;;;6.70;;
14704;SDS011;7442;50.840;3.396;2024-01-11T10:44:55;9.13;;;6.67;;
14704;SDS011;7442;50.840;3.396;2024-01-11T10:47:47;8.70;;;6.30;;
14704;SDS011;7442;50.840;3.396;2024-01-11T10:50:30;8.70;;;7.00;;
14704;SDS011;7442;50.840;3.396;2024-01-11T10:53:41;9.10;;;7.28;;
14704;SDS011;7442;50.840;3.396;2024-01-11T10:56:29;9.90;;;7.30;;
14704;SDS011;7442;50.840;3.396;2024-01-11T10:59:17;8.20;;;6.67;;
14704;SDS011;7442;50.840;3.396;2024-01-11T11:02:04;9.68;;;7.45;;
14704;SDS011;7442;50.840;3.396;2024-01-11T11:04:51;10.05;;;7.10;;
14704;SDS011;7442;50.840;3.396;2024-01-11T11:07:39;11.35;;;6.67;;
14704;SDS011;7442;50.840;3.396;2024-01-11T11:10:25;12.70;;;7.75;;
14704;SDS011;7442;50.840;3.396;2024-01-11T11:13:14;9.55;;;7.45;;
14704;SDS011;7442;50.840;3.396;2024-01-11T11:16:00;10.80;;;7.42;;
14704;SDS011;7442;50.840;3.396;2024-01-11T11:18:50;10.30;;;7.22;;
14704;SDS011;7442;50.840;3.396;2024-01-11T11:21:43;13.95;;;7.62;;
14704;SDS011;7442;50.840;3.396;2024-01-11T11:24:29;10.68;;;7.12;;
14704;SDS011;7442;50.840;3.396;2024-01-11T11:27:16;10.05;;;7.17;;
14704;SDS011;7442;50.840;3.396;2024-01-11T11:30:03;10.90;;;8.33;;
14704;SDS011;7442;50.840;3.396;2024-01-11T11:32:51;10.35;;;8.00;;
14704;SDS011;7442;50.840;3.396;2024-01-11T11:35:38;12.50;;;8.43;;
14704;SDS011;7442;50.840;3.396;2024-01-11T11:38:29;16.30;;;9.68;;
14704;SDS011;7442;50.840;3.396;2024-01-11T11:41:11;12.93;;;9.03;;
14704;SDS011;7442;50.840;3.396;2024-01-11T11:44:01;12.18;;;8.90;;
14704;SDS011;7442;50.840;3.396;2024-01-11T11:46:47;12.20;;;8.40;;
14704;SDS011;7442;50.840;3.396;2024-01-11T11:52:38;14.98;;;9.65;;
14704;SDS011;7442;50.840;3.396;2024-01-11T11:55:24;11.68;;;7.35;;
14704;SDS011;7442;50.840;3.396;2024-01-11T11:58:12;12.18;;;7.90;;
14704;SDS011;7442;50.840;3.396;2024-01-11T12:00:59;9.90;;;8.35;;
14704;SDS011;7442;50.840;3.396;2024-01-11T12:03:45;9.85;;;7.47;;
14704;SDS011;7442;50.840;3.396;2024-01-11T12:06:34;13.48;;;7.70;;
14704;SDS011;7442;50.840;3.396;2024-01-11T12:09:21;8.85;;;6.83;;
14704;SDS011;7442;50.840;3.396;2024-01-11T12:12:08;12.05;;;7.28;;
14704;SDS011;7442;50.840;3.396;2024-01-11T12:14:54;8.85;;;7.03;;
14704;SDS011;7442;50.840;3.396;2024-01-11T12:17:40;10.93;;;7.30;;
14704;SDS011;7442;50.840;3.396;2024-01-11T12:20:28;12.90;;;7.50;;
14704;SDS011;7442;50.840;3.396;2024-01-11T12:23:14;10.38;;;7.30;;
14704;SDS011;7442;50.840;3.396;2024-01-11T12:26:01;12.70;;;7.28;;
14704;SDS011;7442;50.840;3.396;2024-01-11T12:28:49;9.60;;;7.37;;
14704;SDS011;7442;50.840;3.396;2024-01-11T12:31:35;10.48;;;7.53;;
14704;SDS011;7442;50.840;3.396;2024-01-11T12:34:22;10.60;;;7.33;;
14704;SDS011;7442;50.840;3.396;2024-01-11T12:37:08;10.10;;;7.15;;
14704;SDS011;7442;50.840;3.396;2024-01-11T12:39:58;10.85;;;7.03;;
14704;SDS011;7442;50.840;3.396;2024-01-11T12:42:45;10.58;;;7.03;;
14704;SDS011;7442;50.840;3.396;2024-01-11T12:45:31;10.38;;;8.35;;
14704;SDS011;7442;50.840;3.396;2024-01-11T12:48:17;11.45;;;8.38;;
14704;SDS011;7442;50.840;3.396;2024-01-11T12:51:05;9.40;;;7.40;;
14704;SDS011;7442;50.840;3.396;2024-01-11T12:53:52;10.80;;;7.15;;
14704;SDS011;7442;50.840;3.396;2024-01-11T12:56:42;10.35;;;6.78;;
14704;SDS011;7442;50.840;3.396;2024-01-11T12:59:28;9.05;;;7.37;;
14704;SDS011;7442;50.840;3.396;2024-01-11T13:02:15;14.43;;;7.35;;
14704;SDS011;7442;50.840;3.396;2024-01-11T13:05:02;15.20;;;8.25;;
14704;SDS011;7442;50.840;3.396;2024-01-11T13:07:48;10.13;;;7.00;;
14704;SDS011;7442;50.840;3.396;2024-01-11T13:10:35;11.88;;;7.72;;
14704;SDS011;7442;50.840;3.396;2024-01-11T13:13:21;13.22;;;9.85;;
14704;SDS011;7442;50.840;3.396;2024-01-11T13:16:08;12.40;;;7.42;;
14704;SDS011;7442;50.840;3.396;2024-01-11T13:18:59;9.95;;;7.35;;
14704;SDS011;7442;50.840;3.396;2024-01-11T13:21:45;13.65;;;7.67;;
14704;SDS011;7442;50.840;3.396;2024-01-11T13:24:31;9.68;;;6.67;;
14704;SDS011;7442;50.840;3.396;2024-01-11T13:27:17;11.35;;;7.15;;
14704;SDS011;7442;50.840;3.396;2024-01-11T13:30:04;9.65;;;6.72;;
14704;SDS011;7442;50.840;3.396;2024-01-11T13:32:51;11.68;;;7.12;;
14704;SDS011;7442;50.840;3.396;2024-01-11T13:35:38;10.05;;;6.95;;
14704;SDS011;7442;50.840;3.396;2024-01-11T13:38:25;9.65;;;6.80;;
14704;SDS011;7442;50.840;3.396;2024-01-11T13:41:11;11.03;;;6.87;;
14704;SDS011;7442;50.840;3.396;2024-01-11T13:43:58;11.63;;;6.53;;
14704;SDS011;7442;50.840;3.396;2024-01-11T13:49:29;8.15;;;6.12;;
14704;SDS011;7442;50.840;3.396;2024-01-11T13:52:15;11.35;;;6.85;;
14704;SDS011;7442;50.840;3.396;2024-01-11T13:55:01;8.53;;;6.65;;
14704;SDS011;7442;50.840;3.396;2024-01-11T13:57:53;8.53;;;5.92;;
14704;SDS011;7442;50.840;3.396;2024-01-11T14:00:36;8.50;;;6.25;;
14704;SDS011;7442;50.840;3.396;2024-01-11T14:03:22;8.95;;;6.58;;
14704;SDS011;7442;50.840;3.396;2024-01-11T14:06:08;8.15;;;6.75;;
14704;SDS011;7442;50.840;3.396;2024-01-11T14:08:55;9.68;;;6.25;;
14704;SDS011;7442;50.840;3.396;2024-01-11T14:11:41;8.73;;;5.97;;
14704;SDS011;7442;50.840;3.396;2024-01-11T14:14:27;7.67;;;5.92;;
14704;SDS011;7442;50.840;3.396;2024-01-11T14:19:58;7.20;;;5.83;;
14704;SDS011;7442;50.840;3.396;2024-01-11T14:22:45;7.15;;;6.15;;
14704;SDS011;7442;50.840;3.396;2024-01-11T14:25:40;8.33;;;6.10;;
14704;SDS011;7442;50.840;3.396;2024-01-11T14:28:26;9.75;;;5.97;;
14704;SDS011;7442;50.840;3.396;2024-01-11T14:33:58;8.70;;;6.17;;
14704;SDS011;7442;50.840;3.396;2024-01-11T14:36:44;7.87;;;5.67;;
14704;SDS011;7442;50.840;3.396;2024-01-11T14:39:30;7.08;;;5.80;;
14704;SDS011;7442;50.840;3.396;2024-01-11T14:42:16;9.20;;;6.17;;
14704;SDS011;7442;50.840;3.396;2024-01-11T14:45:03;8.05;;;5.78;;
14704;SDS011;7442;50.840;3.396;2024-01-11T14:47:50;8.23;;;5.60;;
14704;SDS011;7442;50.840;3.396;2024-01-11T14:50:36;7.60;;;5.60;;
14704;SDS011;7442;50.840;3.396;2024-01-11T14:53:22;8.43;;;6.00;;
14704;SDS011;7442;50.840;3.396;2024-01-11T14:56:09;8.55;;;5.90;;
14704;SDS011;7442;50.840;3.396;2024-01-11T14:58:56;6.95;;;6.00;;
14704;SDS011;7442;50.840;3.396;2024-01-11T15:01:42;7.78;;;5.62;;
14704;SDS011;7442;50.840;3.396;2024-01-11T15:04:28;7.72;;;5.65;;
14704;SDS011;7442;50.840;3.396;2024-01-11T15:07:14;8.18;;;5.97;;
14704;SDS011;7442;50.840;3.396;2024-01-11T15:10:00;7.62;;;6.17;;
14704;SDS011;7442;50.840;3.396;2024-01-11T15:12:47;5.80;;;4.95;;
14704;SDS011;7442;50.840;3.396;2024-01-11T15:15:34;6.00;;;5.25;;
14704;SDS011;7442;50.840;3.396;2024-01-11T15:18:20;9.43;;;5.83;;
14704;SDS011;7442;50.840;3.396;2024-01-11T15:21:06;6.05;;;5.40;;
14704;SDS011;7442;50.840;3.396;2024-01-11T15:23:52;6.05;;;5.22;;
14704;SDS011;7442;50.840;3.396;2024-01-11T15:26:38;5.55;;;4.97;;
14704;SDS011;7442;50.840;3.396;2024-01-11T15:29:24;5.53;;;4.80;;
14704;SDS011;7442;50.840;3.396;2024-01-11T15:32:10;5.30;;;4.72;;
14704;SDS011;7442;50.840;3.396;2024-01-11T15:34:56;5.70;;;4.60;;
14704;SDS011;7442;50.840;3.396;2024-01-11T15:37:43;7.15;;;5.45;;
14704;SDS011;7442;50.840;3.396;2024-01-11T15:40:29;5.05;;;4.55;;
14704;SDS011;7442;50.840;3.396;2024-01-11T15:43:15;5.53;;;4.65;;
14704;SDS011;7442;50.840;3.396;2024-01-11T15:46:01;6.70;;;5.05;;
14704;SDS011;7442;50.840;3.396;2024-01-11T15:48:48;6.95;;;4.55;;
14704;SDS011;7442;50.840;3.396;2024-01-11T15:51:34;5.72;;;4.35;;
14704;SDS011;7442;50.840;3.396;2024-01-11T15:54:20;5.55;;;4.70;;
14704;SDS011;7442;50.840;3.396;2024-01-11T15:57:06;5.10;;;4.60;;
14704;SDS011;7442;50.840;3.396;2024-01-11T15:59:52;5.58;;;4.70;;
14704;SDS011;7442;50.840;3.396;2024-01-11T16:05:25;6.08;;;4.58;;
14704;SDS011;7442;50.840;3.396;2024-01-11T16:08:13;5.50;;;4.60;;
14704;SDS011;7442;50.840;3.396;2024-01-11T16:10:59;4.97;;;4.37;;
14704;SDS011;7442;50.840;3.396;2024-01-11T16:13:45;5.40;;;4.40;;
14704;SDS011;7442;50.840;3.396;2024-01-11T16:16:33;5.65;;;4.55;;
14704;SDS011;7442;50.840;3.396;2024-01-11T16:19:19;4.47;;;3.75;;
14704;SDS011;7442;50.840;3.396;2024-01-11T16:22:05;5.33;;;4.62;;
14704;SDS011;7442;50.840;3.396;2024-01-11T16:27:37;4.70;;;4.15;;
14704;SDS011;7442;50.840;3.396;2024-01-11T16:30:23;5.17;;;4.30;;
14704;SDS011;7442;50.840;3.396;2024-01-11T16:35:55;5.60;;;4.30;;
14704;SDS011;7442;50.840;3.396;2024-01-11T16:38:42;4.75;;;3.90;;
14704;SDS011;7442;50.840;3.396;2024-01-11T16:41:28;5.17;;;4.28;;
14704;SDS011;7442;50.840;3.396;2024-01-11T16:44:14;5.17;;;4.37;;
14704;SDS011;7442;50.840;3.396;2024-01-11T16:47:02;7.95;;;3.98;;
14704;SDS011;7442;50.840;3.396;2024-01-11T16:49:48;5.08;;;4.40;;
14704;SDS011;7442;50.840;3.396;2024-01-11T16:52:34;5.08;;;3.92;;
14704;SDS011;7442;50.840;3.396;2024-01-11T16:55:21;5.60;;;4.70;;
14704;SDS011;7442;50.840;3.396;2024-01-11T16:58:10;5.60;;;4.30;;
14704;SDS011;7442;50.840;3.396;2024-01-11T17:00:56;5.97;;;3.58;;
14704;SDS011;7442;50.840;3.396;2024-01-11T17:03:42;5.60;;;4.03;;
14704;SDS011;7442;50.840;3.396;2024-01-11T17:06:28;4.20;;;3.50;;
14704;SDS011;7442;50.840;3.396;2024-01-11T17:09:14;5.37;;;3.47;;
14704;SDS011;7442;50.840;3.396;2024-01-11T17:12:00;7.37;;;4.00;;
14704;SDS011;7442;50.840;3.396;2024-01-11T17:14:46;5.37;;;4.03;;
14704;SDS011;7442;50.840;3.396;2024-01-11T17:17:33;4.25;;;3.52;;
14704;SDS011;7442;50.840;3.396;2024-01-11T17:23:04;5.60;;;3.70;;
14704;SDS011;7442;50.840;3.396;2024-01-11T17:25:50;4.37;;;3.62;;
14704;SDS011;7442;50.840;3.396;2024-01-11T17:34:36;4.37;;;3.52;;
14704;SDS011;7442;50.840;3.396;2024-01-11T17:37:22;3.80;;;3.37;;
14704;SDS011;7442;50.840;3.396;2024-01-11T17:40:10;4.47;;;3.75;;
14704;SDS011;7442;50.840;3.396;2024-01-11T17:43:11;4.72;;;3.30;;
14704;SDS011;7442;50.840;3.396;2024-01-11T17:45:39;3.67;;;3.27;;
14704;SDS011;7442;50.840;3.396;2024-01-11T17:48:25;5.92;;;3.75;;
14704;SDS011;7442;50.840;3.396;2024-01-11T17:53:56;4.87;;;3.60;;
14704;SDS011;7442;50.840;3.396;2024-01-11T17:59:27;5.25;;;3.85;;
14704;SDS011;7442;50.840;3.396;2024-01-11T18:02:14;4.65;;;3.67;;
14704;SDS011;7442;50.840;3.396;2024-01-11T18:05:00;5.35;;;3.65;;
14704;SDS011;7442;50.840;3.396;2024-01-11T18:07:48;4.00;;;3.60;;
14704;SDS011;7442;50.840;3.396;2024-01-11T18:13:19;7.08;;;4.67;;
14704;SDS011;7442;50.840;3.396;2024-01-11T18:16:05;4.78;;;3.98;;
14704;SDS011;7442;50.840;3.396;2024-01-11T18:18:51;5.53;;;4.08;;
14704;SDS011;7442;50.840;3.396;2024-01-11T18:24:22;5.55;;;4.05;;
14704;SDS011;7442;50.840;3.396;2024-01-11T18:29:55;5.28;;;3.62;;
14704;SDS011;7442;50.840;3.396;2024-01-11T18:32:41;5.00;;;4.00;;
14704;SDS011;7442;50.840;3.396;2024-01-11T18:35:28;6.67;;;4.10;;
14704;SDS011;7442;50.840;3.396;2024-01-11T18:38:14;5.50;;;4.00;;
14704;SDS011;7442;50.840;3.396;2024-01-11T18:41:03;5.70;;;4.15;;
14704;SDS011;7442;50.840;3.396;2024-01-11T18:43:49;6.53;;;3.98;;
14704;SDS011;7442;50.840;3.396;2024-01-11T18:46:38;5.97;;;3.75;;
14704;SDS011;7442;50.840;3.396;2024-01-11T18:49:25;5.33;;;4.17;;
14704;SDS011;7442;50.840;3.396;2024-01-11T18:52:10;6.90;;;3.87;;
14704;SDS011;7442;50.840;3.396;2024-01-11T18:54:57;7.47;;;4.60;;
14704;SDS011;7442;50.840;3.396;2024-01-11T18:57:43;5.47;;;3.92;;